KCRE/CRE METAR and TAF weather

Enter ICAO airport designator
Station Type Date Time Source
KCRE METAR 2019/11/21 02:53 UTC NOAA

KCRE 210253Z AUTO 04003KT 10SM CLR 06/05 A3023 RMK AO1 SLP236 T00610050 51015


Station Type Date Time Source
KCRE Decoded METAR 2019/11/21 02:53 UTC NOAA

N. MYRTLE BCH.GRAND STRAND, SC, United States (KCRE) 33-49N 078-43W 10M
Nov 20, 2019 - 09:53 PM EST / 2019.11.21 0253 UTC
Wind: from the NE (040 degrees) at 3 MPH (3 KT):0
Visibility: 10 mile(s):0
Sky conditions: clear
Temperature: 43.0 F (6.1 C)
Dew Point: 41.0 F (5.0 C)
Relative Humidity: 92%
Pressure (altimeter): 30.23 in. Hg (1023 hPa)
Pressure tendency: 0.04 inches (1.5 hPa) higher than three hours ago
ob: KCRE 210253Z AUTO 04003KT 10SM CLR 06/05 A3023 RMK AO1 SLP236 T00610050 51015
cycle: 3

Station Type Date Time Source
KCRE TAF 2019/11/20 18:22 UTC NOAA

TAF KCRE 201720Z 2018/2118 34006KT P6SM FEW120

Example: see airport list